DRZA/AJY METAR and TAF weather

Enter ICAO airport designator
Station Type Date Time Source
DRZA METAR 2021/10/22 19:00 UTC NOAA

DRZA 221900Z 08010KT CAVOK 32/08 Q1012


Station Type Date Time Source
DRZA Decoded METAR 2021/10/22 19:00 UTC NOAA

Agadez, Niger (DRZA) 16-58N 007-59E 502M
Oct 22, 2021 - 03:00 PM EDT / 2021.10.22 1900 UTC
Wind: from the E (080 degrees) at 12 MPH (10 KT):0
Visibility: greater than 7 mile(s):0
Temperature: 89 F (32 C)
Dew Point: 46 F (8 C)
Relative Humidity: 22%
Pressure (altimeter): 29.88 in. Hg (1012 hPa)
ob: DRZA 221900Z 08010KT CAVOK 32/08 Q1012
cycle: 19

Station Type Date Time Source
DRZA TAF 2021/10/22 18:21 UTC NOAA

TAF DRZA 221700Z 2218/2318 10010KT 6000 NSC PROB30 2308/2312 12020KT 4000 BLDU

Example: see airport list